sensor_id;sensor_type;location;lat;lon;timestamp;P1;durP1;ratioP1;P2;durP2;ratioP2
75820;SDS011;64454;51.984;9.838;2023-04-25T00:01:44;7.53;;;4.30;;
75820;SDS011;64454;51.984;9.838;2023-04-25T00:04:11;10.45;;;4.60;;
75820;SDS011;64454;51.984;9.838;2023-04-25T00:06:39;8.43;;;4.10;;
75820;SDS011;64454;51.984;9.838;2023-04-25T00:09:06;8.98;;;3.70;;
75820;SDS011;64454;51.984;9.838;2023-04-25T00:11:36;8.32;;;3.30;;
75820;SDS011;64454;51.984;9.838;2023-04-25T00:14:03;6.40;;;3.83;;
75820;SDS011;64454;51.984;9.838;2023-04-25T00:16:31;8.98;;;4.28;;
75820;SDS011;64454;51.984;9.838;2023-04-25T00:18:59;8.10;;;4.20;;
75820;SDS011;64454;51.984;9.838;2023-04-25T00:21:27;7.95;;;3.95;;
75820;SDS011;64454;51.984;9.838;2023-04-25T00:23:54;9.93;;;3.90;;
75820;SDS011;64454;51.984;9.838;2023-04-25T00:26:21;9.13;;;3.95;;
75820;SDS011;64454;51.984;9.838;2023-04-25T00:28:49;8.60;;;3.45;;
75820;SDS011;64454;51.984;9.838;2023-04-25T00:31:16;10.75;;;3.97;;
75820;SDS011;64454;51.984;9.838;2023-04-25T00:33:43;7.65;;;4.13;;
75820;SDS011;64454;51.984;9.838;2023-04-25T00:36:10;5.97;;;3.42;;
75820;SDS011;64454;51.984;9.838;2023-04-25T00:38:37;10.63;;;4.20;;
75820;SDS011;64454;51.984;9.838;2023-04-25T00:41:04;6.28;;;4.45;;
75820;SDS011;64454;51.984;9.838;2023-04-25T00:43:32;11.80;;;4.25;;
75820;SDS011;64454;51.984;9.838;2023-04-25T00:46:01;7.65;;;3.60;;
75820;SDS011;64454;51.984;9.838;2023-04-25T00:48:28;8.53;;;3.63;;
75820;SDS011;64454;51.984;9.838;2023-04-25T00:50:56;8.60;;;3.80;;
75820;SDS011;64454;51.984;9.838;2023-04-25T00:53:25;9.87;;;4.37;;
75820;SDS011;64454;51.984;9.838;2023-04-25T00:55:54;11.10;;;4.40;;
75820;SDS011;64454;51.984;9.838;2023-04-25T00:58:21;12.63;;;4.47;;
75820;SDS011;64454;51.984;9.838;2023-04-25T01:00:50;6.45;;;4.00;;
75820;SDS011;64454;51.984;9.838;2023-04-25T01:03:19;7.97;;;3.90;;
75820;SDS011;64454;51.984;9.838;2023-04-25T01:05:46;8.38;;;4.43;;
75820;SDS011;64454;51.984;9.838;2023-04-25T01:08:14;9.32;;;4.40;;
75820;SDS011;64454;51.984;9.838;2023-04-25T01:10:41;7.53;;;4.30;;
75820;SDS011;64454;51.984;9.838;2023-04-25T01:13:08;9.27;;;4.22;;
75820;SDS011;64454;51.984;9.838;2023-04-25T01:15:35;7.53;;;4.15;;
75820;SDS011;64454;51.984;9.838;2023-04-25T01:18:06;8.02;;;4.57;;
75820;SDS011;64454;51.984;9.838;2023-04-25T01:20:34;7.75;;;4.38;;
75820;SDS011;64454;51.984;9.838;2023-04-25T01:23:04;10.30;;;4.63;;
75820;SDS011;64454;51.984;9.838;2023-04-25T01:25:31;6.93;;;4.20;;
75820;SDS011;64454;51.984;9.838;2023-04-25T01:27:59;9.27;;;4.60;;
75820;SDS011;64454;51.984;9.838;2023-04-25T01:30:26;12.07;;;5.00;;
75820;SDS011;64454;51.984;9.838;2023-04-25T01:32:55;8.10;;;4.55;;
75820;SDS011;64454;51.984;9.838;2023-04-25T01:35:22;8.30;;;4.60;;
75820;SDS011;64454;51.984;9.838;2023-04-25T01:37:50;6.57;;;4.03;;
75820;SDS011;64454;51.984;9.838;2023-04-25T01:40:19;10.13;;;4.57;;
75820;SDS011;64454;51.984;9.838;2023-04-25T01:42:48;10.60;;;4.60;;
75820;SDS011;64454;51.984;9.838;2023-04-25T01:45:15;8.23;;;4.50;;
75820;SDS011;64454;51.984;9.838;2023-04-25T01:47:43;10.13;;;5.30;;
75820;SDS011;64454;51.984;9.838;2023-04-25T01:50:13;8.27;;;4.43;;
75820;SDS011;64454;51.984;9.838;2023-04-25T01:52:41;9.45;;;4.50;;
75820;SDS011;64454;51.984;9.838;2023-04-25T01:55:09;8.38;;;4.20;;
75820;SDS011;64454;51.984;9.838;2023-04-25T01:57:37;9.73;;;4.95;;
75820;SDS011;64454;51.984;9.838;2023-04-25T02:00:05;11.43;;;5.03;;
75820;SDS011;64454;51.984;9.838;2023-04-25T02:02:34;8.40;;;4.80;;
75820;SDS011;64454;51.984;9.838;2023-04-25T02:05:00;11.57;;;5.57;;
75820;SDS011;64454;51.984;9.838;2023-04-25T02:07:27;8.55;;;4.47;;
75820;SDS011;64454;51.984;9.838;2023-04-25T02:09:54;12.00;;;5.10;;
75820;SDS011;64454;51.984;9.838;2023-04-25T02:12:21;8.07;;;4.50;;
75820;SDS011;64454;51.984;9.838;2023-04-25T02:14:49;8.30;;;5.10;;
75820;SDS011;64454;51.984;9.838;2023-04-25T02:17:16;9.03;;;4.77;;
75820;SDS011;64454;51.984;9.838;2023-04-25T02:19:43;8.00;;;5.17;;
75820;SDS011;64454;51.984;9.838;2023-04-25T02:22:10;9.52;;;5.38;;
75820;SDS011;64454;51.984;9.838;2023-04-25T02:24:37;9.70;;;5.15;;
75820;SDS011;64454;51.984;9.838;2023-04-25T02:27:05;13.10;;;5.80;;
75820;SDS011;64454;51.984;9.838;2023-04-25T02:29:32;10.00;;;5.40;;
75820;SDS011;64454;51.984;9.838;2023-04-25T02:32:00;8.90;;;5.60;;
75820;SDS011;64454;51.984;9.838;2023-04-25T02:34:27;10.63;;;5.90;;
75820;SDS011;64454;51.984;9.838;2023-04-25T02:36:54;7.65;;;5.22;;
75820;SDS011;64454;51.984;9.838;2023-04-25T02:39:21;9.52;;;5.38;;
75820;SDS011;64454;51.984;9.838;2023-04-25T02:41:50;8.73;;;5.60;;
75820;SDS011;64454;51.984;9.838;2023-04-25T02:44:18;9.05;;;5.57;;
75820;SDS011;64454;51.984;9.838;2023-04-25T02:46:46;8.30;;;5.90;;
75820;SDS011;64454;51.984;9.838;2023-04-25T02:49:15;9.23;;;5.73;;
75820;SDS011;64454;51.984;9.838;2023-04-25T02:51:44;11.50;;;5.70;;
75820;SDS011;64454;51.984;9.838;2023-04-25T02:54:11;11.67;;;5.77;;
75820;SDS011;64454;51.984;9.838;2023-04-25T02:56:38;9.40;;;6.00;;
75820;SDS011;64454;51.984;9.838;2023-04-25T02:59:05;9.95;;;5.50;;
75820;SDS011;64454;51.984;9.838;2023-04-25T03:01:32;8.00;;;5.60;;
75820;SDS011;64454;51.984;9.838;2023-04-25T03:03:59;9.32;;;6.18;;
75820;SDS011;64454;51.984;9.838;2023-04-25T03:06:27;7.10;;;5.10;;
75820;SDS011;64454;51.984;9.838;2023-04-25T03:08:53;7.80;;;5.28;;
75820;SDS011;64454;51.984;9.838;2023-04-25T03:11:20;11.95;;;6.03;;
75820;SDS011;64454;51.984;9.838;2023-04-25T03:13:47;9.52;;;5.45;;
75820;SDS011;64454;51.984;9.838;2023-04-25T03:16:14;8.43;;;5.65;;
75820;SDS011;64454;51.984;9.838;2023-04-25T03:18:41;7.35;;;5.30;;
75820;SDS011;64454;51.984;9.838;2023-04-25T03:21:07;8.25;;;5.20;;
75820;SDS011;64454;51.984;9.838;2023-04-25T03:23:36;8.82;;;5.38;;
75820;SDS011;64454;51.984;9.838;2023-04-25T03:26:02;9.38;;;5.03;;
75820;SDS011;64454;51.984;9.838;2023-04-25T03:28:29;9.25;;;5.60;;
75820;SDS011;64454;51.984;9.838;2023-04-25T03:30:56;8.02;;;4.88;;
75820;SDS011;64454;51.984;9.838;2023-04-25T03:33:23;7.13;;;5.10;;
75820;SDS011;64454;51.984;9.838;2023-04-25T03:35:50;8.40;;;4.70;;
75820;SDS011;64454;51.984;9.838;2023-04-25T03:38:17;7.93;;;4.55;;
75820;SDS011;64454;51.984;9.838;2023-04-25T03:40:45;7.70;;;4.72;;
75820;SDS011;64454;51.984;9.838;2023-04-25T03:43:12;8.70;;;4.30;;
75820;SDS011;64454;51.984;9.838;2023-04-25T03:45:38;6.90;;;3.87;;
75820;SDS011;64454;51.984;9.838;2023-04-25T03:48:05;6.88;;;3.65;;
75820;SDS011;64454;51.984;9.838;2023-04-25T03:50:32;6.22;;;3.60;;
75820;SDS011;64454;51.984;9.838;2023-04-25T03:52:59;8.20;;;3.97;;
75820;SDS011;64454;51.984;9.838;2023-04-25T03:55:26;8.73;;;3.57;;
75820;SDS011;64454;51.984;9.838;2023-04-25T03:57:54;5.40;;;3.28;;
75820;SDS011;64454;51.984;9.838;2023-04-25T04:00:22;5.63;;;3.20;;
75820;SDS011;64454;51.984;9.838;2023-04-25T04:02:49;5.57;;;3.50;;
75820;SDS011;64454;51.984;9.838;2023-04-25T04:05:16;9.93;;;3.80;;
75820;SDS011;64454;51.984;9.838;2023-04-25T04:07:43;6.78;;;3.22;;
75820;SDS011;64454;51.984;9.838;2023-04-25T04:10:10;8.37;;;4.20;;
75820;SDS011;64454;51.984;9.838;2023-04-25T04:12:37;7.88;;;4.55;;
75820;SDS011;64454;51.984;9.838;2023-04-25T04:15:06;7.10;;;5.07;;
75820;SDS011;64454;51.984;9.838;2023-04-25T04:17:34;6.65;;;3.90;;
75820;SDS011;64454;51.984;9.838;2023-04-25T04:20:01;11.48;;;6.70;;
75820;SDS011;64454;51.984;9.838;2023-04-25T04:22:29;9.25;;;6.32;;
75820;SDS011;64454;51.984;9.838;2023-04-25T04:24:56;10.23;;;7.97;;
75820;SDS011;64454;51.984;9.838;2023-04-25T04:27:22;8.13;;;4.18;;
75820;SDS011;64454;51.984;9.838;2023-04-25T04:29:49;13.98;;;4.07;;
75820;SDS011;64454;51.984;9.838;2023-04-25T04:32:18;11.50;;;4.05;;
75820;SDS011;64454;51.984;9.838;2023-04-25T04:34:45;8.23;;;3.80;;
75820;SDS011;64454;51.984;9.838;2023-04-25T04:37:13;9.30;;;3.40;;
75820;SDS011;64454;51.984;9.838;2023-04-25T04:39:40;9.18;;;3.97;;
75820;SDS011;64454;51.984;9.838;2023-04-25T04:42:07;8.02;;;3.70;;
75820;SDS011;64454;51.984;9.838;2023-04-25T04:44:36;8.80;;;4.10;;
75820;SDS011;64454;51.984;9.838;2023-04-25T04:47:03;11.93;;;3.40;;
75820;SDS011;64454;51.984;9.838;2023-04-25T04:49:33;8.10;;;3.28;;
75820;SDS011;64454;51.984;9.838;2023-04-25T04:52:01;8.25;;;3.90;;
75820;SDS011;64454;51.984;9.838;2023-04-25T04:54:28;11.02;;;4.15;;
75820;SDS011;64454;51.984;9.838;2023-04-25T04:56:55;8.90;;;3.72;;
75820;SDS011;64454;51.984;9.838;2023-04-25T04:59:22;8.63;;;3.60;;
75820;SDS011;64454;51.984;9.838;2023-04-25T05:01:48;13.10;;;4.53;;
75820;SDS011;64454;51.984;9.838;2023-04-25T05:04:16;10.18;;;3.95;;
75820;SDS011;64454;51.984;9.838;2023-04-25T05:06:46;13.50;;;3.90;;
75820;SDS011;64454;51.984;9.838;2023-04-25T05:09:13;9.13;;;3.80;;
75820;SDS011;64454;51.984;9.838;2023-04-25T05:11:41;14.27;;;5.23;;
75820;SDS011;64454;51.984;9.838;2023-04-25T05:14:08;11.98;;;4.43;;
75820;SDS011;64454;51.984;9.838;2023-04-25T05:16:35;11.33;;;4.40;;
75820;SDS011;64454;51.984;9.838;2023-04-25T05:19:02;8.53;;;3.40;;
75820;SDS011;64454;51.984;9.838;2023-04-25T05:21:28;8.77;;;3.90;;
75820;SDS011;64454;51.984;9.838;2023-04-25T05:23:57;12.25;;;3.58;;
75820;SDS011;64454;51.984;9.838;2023-04-25T05:26:24;11.60;;;4.13;;
75820;SDS011;64454;51.984;9.838;2023-04-25T05:28:55;11.68;;;3.88;;
75820;SDS011;64454;51.984;9.838;2023-04-25T05:31:22;11.38;;;4.63;;
75820;SDS011;64454;51.984;9.838;2023-04-25T05:33:49;11.13;;;3.90;;
75820;SDS011;64454;51.984;9.838;2023-04-25T05:36:16;12.63;;;4.30;;
75820;SDS011;64454;51.984;9.838;2023-04-25T05:38:44;8.65;;;3.72;;
75820;SDS011;64454;51.984;9.838;2023-04-25T05:41:13;13.83;;;4.37;;
75820;SDS011;64454;51.984;9.838;2023-04-25T05:43:40;14.02;;;4.22;;
75820;SDS011;64454;51.984;9.838;2023-04-25T05:46:10;9.50;;;4.55;;
75820;SDS011;64454;51.984;9.838;2023-04-25T05:48:37;15.45;;;4.22;;
75820;SDS011;64454;51.984;9.838;2023-04-25T05:51:04;10.10;;;4.30;;
75820;SDS011;64454;51.984;9.838;2023-04-25T05:53:31;11.75;;;3.80;;
75820;SDS011;64454;51.984;9.838;2023-04-25T05:55:58;11.63;;;4.00;;
75820;SDS011;64454;51.984;9.838;2023-04-25T05:58:26;12.43;;;4.13;;
75820;SDS011;64454;51.984;9.838;2023-04-25T06:00:53;14.70;;;4.10;;
75820;SDS011;64454;51.984;9.838;2023-04-25T06:03:20;13.67;;;4.03;;
75820;SDS011;64454;51.984;9.838;2023-04-25T06:05:47;13.40;;;4.28;;
75820;SDS011;64454;51.984;9.838;2023-04-25T06:08:14;10.27;;;4.10;;
75820;SDS011;64454;51.984;9.838;2023-04-25T06:10:41;11.75;;;3.92;;
75820;SDS011;64454;51.984;9.838;2023-04-25T06:13:08;9.80;;;4.18;;
75820;SDS011;64454;51.984;9.838;2023-04-25T06:15:36;20.20;;;4.53;;
75820;SDS011;64454;51.984;9.838;2023-04-25T06:18:02;11.88;;;4.13;;
75820;SDS011;64454;51.984;9.838;2023-04-25T06:20:29;12.43;;;3.80;;
75820;SDS011;64454;51.984;9.838;2023-04-25T06:22:56;9.40;;;3.80;;
75820;SDS011;64454;51.984;9.838;2023-04-25T06:25:23;11.82;;;4.50;;
75820;SDS011;64454;51.984;9.838;2023-04-25T06:27:50;9.55;;;3.60;;
75820;SDS011;64454;51.984;9.838;2023-04-25T06:30:16;9.30;;;4.10;;
75820;SDS011;64454;51.984;9.838;2023-04-25T06:32:48;10.70;;;4.00;;
75820;SDS011;64454;51.984;9.838;2023-04-25T06:35:15;14.55;;;4.00;;
75820;SDS011;64454;51.984;9.838;2023-04-25T06:37:42;12.73;;;4.10;;
75820;SDS011;64454;51.984;9.838;2023-04-25T06:40:09;12.02;;;3.65;;
75820;SDS011;64454;51.984;9.838;2023-04-25T06:42:36;14.35;;;3.75;;
75820;SDS011;64454;51.984;9.838;2023-04-25T06:45:03;10.57;;;4.17;;
75820;SDS011;64454;51.984;9.838;2023-04-25T06:47:31;17.10;;;3.90;;
75820;SDS011;64454;51.984;9.838;2023-04-25T06:49:59;12.70;;;3.60;;
75820;SDS011;64454;51.984;9.838;2023-04-25T06:52:26;14.98;;;4.40;;
75820;SDS011;64454;51.984;9.838;2023-04-25T06:54:53;12.60;;;4.03;;
75820;SDS011;64454;51.984;9.838;2023-04-25T06:57:20;11.82;;;3.90;;
75820;SDS011;64454;51.984;9.838;2023-04-25T06:59:46;11.98;;;4.57;;
75820;SDS011;64454;51.984;9.838;2023-04-25T07:02:13;12.07;;;4.13;;
75820;SDS011;64454;51.984;9.838;2023-04-25T07:04:40;12.77;;;3.72;;
75820;SDS011;64454;51.984;9.838;2023-04-25T07:07:08;12.03;;;3.50;;
75820;SDS011;64454;51.984;9.838;2023-04-25T07:09:35;13.48;;;4.10;;
75820;SDS011;64454;51.984;9.838;2023-04-25T07:12:02;13.90;;;4.40;;
75820;SDS011;64454;51.984;9.838;2023-04-25T07:14:30;10.00;;;3.20;;
75820;SDS011;64454;51.984;9.838;2023-04-25T07:16:56;9.30;;;3.00;;
75820;SDS011;64454;51.984;9.838;2023-04-25T07:19:23;9.13;;;2.70;;
75820;SDS011;64454;51.984;9.838;2023-04-25T07:21:51;7.77;;;3.13;;
75820;SDS011;64454;51.984;9.838;2023-04-25T07:24:20;12.53;;;3.43;;
75820;SDS011;64454;51.984;9.838;2023-04-25T07:26:46;11.20;;;3.05;;
75820;SDS011;64454;51.984;9.838;2023-04-25T07:29:14;9.07;;;3.00;;
75820;SDS011;64454;51.984;9.838;2023-04-25T07:31:43;9.32;;;2.90;;
75820;SDS011;64454;51.984;9.838;2023-04-25T07:34:09;11.43;;;2.78;;
75820;SDS011;64454;51.984;9.838;2023-04-25T07:36:36;8.93;;;3.00;;
75820;SDS011;64454;51.984;9.838;2023-04-25T07:39:03;9.13;;;2.30;;
75820;SDS011;64454;51.984;9.838;2023-04-25T07:41:32;7.75;;;2.50;;
75820;SDS011;64454;51.984;9.838;2023-04-25T07:43:59;11.07;;;3.22;;
75820;SDS011;64454;51.984;9.838;2023-04-25T07:46:26;7.20;;;2.72;;
75820;SDS011;64454;51.984;9.838;2023-04-25T07:48:53;6.70;;;2.30;;
75820;SDS011;64454;51.984;9.838;2023-04-25T07:51:20;6.85;;;2.70;;
75820;SDS011;64454;51.984;9.838;2023-04-25T07:53:47;5.80;;;2.75;;
75820;SDS011;64454;51.984;9.838;2023-04-25T07:56:14;4.60;;;2.30;;
75820;SDS011;64454;51.984;9.838;2023-04-25T07:58:42;9.98;;;2.78;;
75820;SDS011;64454;51.984;9.838;2023-04-25T08:01:08;8.90;;;2.58;;
75820;SDS011;64454;51.984;9.838;2023-04-25T08:03:35;6.30;;;3.00;;
75820;SDS011;64454;51.984;9.838;2023-04-25T08:06:02;8.38;;;2.40;;
75820;SDS011;64454;51.984;9.838;2023-04-25T08:08:30;7.10;;;2.50;;
75820;SDS011;64454;51.984;9.838;2023-04-25T08:10:56;9.20;;;2.47;;
75820;SDS011;64454;51.984;9.838;2023-04-25T08:13:23;9.50;;;3.30;;
75820;SDS011;64454;51.984;9.838;2023-04-25T08:15:51;9.25;;;3.15;;
75820;SDS011;64454;51.984;9.838;2023-04-25T08:18:18;6.30;;;2.30;;
75820;SDS011;64454;51.984;9.838;2023-04-25T08:20:45;11.90;;;2.97;;
75820;SDS011;64454;51.984;9.838;2023-04-25T08:23:12;6.45;;;2.42;;
75820;SDS011;64454;51.984;9.838;2023-04-25T08:25:39;9.85;;;2.75;;
75820;SDS011;64454;51.984;9.838;2023-04-25T08:28:06;10.73;;;2.58;;
75820;SDS011;64454;51.984;9.838;2023-04-25T08:30:32;9.48;;;2.83;;
75820;SDS011;64454;51.984;9.838;2023-04-25T08:33:01;6.32;;;2.20;;
75820;SDS011;64454;51.984;9.838;2023-04-25T08:35:27;6.82;;;2.47;;
75820;SDS011;64454;51.984;9.838;2023-04-25T08:37:54;7.55;;;2.45;;
75820;SDS011;64454;51.984;9.838;2023-04-25T08:40:22;8.83;;;2.60;;
75820;SDS011;64454;51.984;9.838;2023-04-25T08:42:51;6.28;;;2.20;;
75820;SDS011;64454;51.984;9.838;2023-04-25T08:45:20;7.23;;;2.10;;
75820;SDS011;64454;51.984;9.838;2023-04-25T08:47:47;7.43;;;2.20;;
75820;SDS011;64454;51.984;9.838;2023-04-25T08:50:19;5.78;;;2.20;;
75820;SDS011;64454;51.984;9.838;2023-04-25T08:52:49;7.25;;;2.20;;
75820;SDS011;64454;51.984;9.838;2023-04-25T08:55:18;6.22;;;2.20;;
75820;SDS011;64454;51.984;9.838;2023-04-25T08:57:47;5.45;;;2.47;;
75820;SDS011;64454;51.984;9.838;2023-04-25T09:00:15;7.38;;;2.28;;
75820;SDS011;64454;51.984;9.838;2023-04-25T09:02:44;6.57;;;2.38;;
75820;SDS011;64454;51.984;9.838;2023-04-25T09:05:13;6.05;;;2.00;;
75820;SDS011;64454;51.984;9.838;2023-04-25T09:07:41;6.95;;;1.70;;
75820;SDS011;64454;51.984;9.838;2023-04-25T09:10:08;7.03;;;1.90;;
75820;SDS011;64454;51.984;9.838;2023-04-25T09:12:35;7.38;;;2.45;;
75820;SDS011;64454;51.984;9.838;2023-04-25T09:15:03;6.93;;;2.40;;
75820;SDS011;64454;51.984;9.838;2023-04-25T09:17:33;5.40;;;1.83;;
75820;SDS011;64454;51.984;9.838;2023-04-25T09:20:05;6.93;;;2.30;;
75820;SDS011;64454;51.984;9.838;2023-04-25T09:22:34;5.97;;;2.10;;
75820;SDS011;64454;51.984;9.838;2023-04-25T09:25:04;5.73;;;1.70;;
75820;SDS011;64454;51.984;9.838;2023-04-25T09:27:35;5.93;;;2.20;;
75820;SDS011;64454;51.984;9.838;2023-04-25T09:30:02;5.97;;;2.08;;
75820;SDS011;64454;51.984;9.838;2023-04-25T09:32:30;3.92;;;1.70;;
75820;SDS011;64454;51.984;9.838;2023-04-25T09:34:57;4.85;;;1.88;;
75820;SDS011;64454;51.984;9.838;2023-04-25T09:37:24;6.05;;;1.70;;
75820;SDS011;64454;51.984;9.838;2023-04-25T09:39:53;6.93;;;2.22;;
75820;SDS011;64454;51.984;9.838;2023-04-25T09:42:23;5.10;;;2.20;;
75820;SDS011;64454;51.984;9.838;2023-04-25T09:44:54;6.20;;;1.80;;
75820;SDS011;64454;51.984;9.838;2023-04-25T09:47:22;6.60;;;1.80;;
75820;SDS011;64454;51.984;9.838;2023-04-25T09:49:52;6.97;;;2.20;;
75820;SDS011;64454;51.984;9.838;2023-04-25T09:52:20;5.20;;;2.10;;
75820;SDS011;64454;51.984;9.838;2023-04-25T09:54:49;6.90;;;2.03;;
75820;SDS011;64454;51.984;9.838;2023-04-25T09:57:17;7.00;;;1.88;;
75820;SDS011;64454;51.984;9.838;2023-04-25T09:59:47;7.30;;;2.17;;
75820;SDS011;64454;51.984;9.838;2023-04-25T10:02:16;4.25;;;2.13;;
75820;SDS011;64454;51.984;9.838;2023-04-25T10:04:47;9.80;;;2.00;;
75820;SDS011;64454;51.984;9.838;2023-04-25T10:07:18;7.93;;;2.45;;
75820;SDS011;64454;51.984;9.838;2023-04-25T10:09:47;7.65;;;2.40;;
75820;SDS011;64454;51.984;9.838;2023-04-25T10:12:15;7.47;;;2.17;;
75820;SDS011;64454;51.984;9.838;2023-04-25T10:14:43;7.60;;;2.03;;
75820;SDS011;64454;51.984;9.838;2023-04-25T10:17:13;6.18;;;1.70;;
75820;SDS011;64454;51.984;9.838;2023-04-25T10:19:40;6.70;;;2.10;;
75820;SDS011;64454;51.984;9.838;2023-04-25T10:22:08;4.80;;;2.65;;
75820;SDS011;64454;51.984;9.838;2023-04-25T10:24:43;4.00;;;1.90;;
75820;SDS011;64454;51.984;9.838;2023-04-25T10:27:12;8.83;;;2.83;;
75820;SDS011;64454;51.984;9.838;2023-04-25T10:29:39;3.90;;;1.85;;
75820;SDS011;64454;51.984;9.838;2023-04-25T10:32:08;5.57;;;1.80;;
75820;SDS011;64454;51.984;9.838;2023-04-25T10:34:40;5.45;;;1.98;;
75820;SDS011;64454;51.984;9.838;2023-04-25T10:37:11;7.57;;;2.40;;
75820;SDS011;64454;51.984;9.838;2023-04-25T10:39:40;5.15;;;1.95;;
75820;SDS011;64454;51.984;9.838;2023-04-25T10:42:07;6.78;;;2.13;;
75820;SDS011;64454;51.984;9.838;2023-04-25T10:44:35;5.90;;;1.80;;
75820;SDS011;64454;51.984;9.838;2023-04-25T10:47:05;6.50;;;2.03;;
75820;SDS011;64454;51.984;9.838;2023-04-25T10:49:35;6.88;;;2.25;;
75820;SDS011;64454;51.984;9.838;2023-04-25T10:52:12;5.47;;;2.05;;
75820;SDS011;64454;51.984;9.838;2023-04-25T10:54:41;6.23;;;2.00;;
75820;SDS011;64454;51.984;9.838;2023-04-25T11:00:08;5.45;;;1.70;;
75820;SDS011;64454;51.984;9.838;2023-04-25T11:02:41;8.25;;;2.05;;
75820;SDS011;64454;51.984;9.838;2023-04-25T11:05:15;6.07;;;1.40;;
75820;SDS011;64454;51.984;9.838;2023-04-25T11:07:50;4.93;;;1.48;;
75820;SDS011;64454;51.984;9.838;2023-04-25T11:10:19;4.60;;;1.70;;
75820;SDS011;64454;51.984;9.838;2023-04-25T11:12:50;4.35;;;1.30;;
75820;SDS011;64454;51.984;9.838;2023-04-25T11:15:17;3.17;;;1.48;;
75820;SDS011;64454;51.984;9.838;2023-04-25T11:17:44;3.90;;;1.40;;
75820;SDS011;64454;51.984;9.838;2023-04-25T11:20:11;3.83;;;1.35;;
75820;SDS011;64454;51.984;9.838;2023-04-25T11:22:40;3.10;;;1.48;;
75820;SDS011;64454;51.984;9.838;2023-04-25T11:25:12;3.80;;;1.30;;
75820;SDS011;64454;51.984;9.838;2023-04-25T11:27:50;3.63;;;1.30;;
75820;SDS011;64454;51.984;9.838;2023-04-25T11:30:18;3.80;;;1.35;;
75820;SDS011;64454;51.984;9.838;2023-04-25T11:32:47;3.70;;;1.30;;
75820;SDS011;64454;51.984;9.838;2023-04-25T11:35:14;8.10;;;2.27;;
75820;SDS011;64454;51.984;9.838;2023-04-25T11:37:42;5.35;;;1.65;;
75820;SDS011;64454;51.984;9.838;2023-04-25T11:40:11;4.70;;;1.70;;
75820;SDS011;64454;51.984;9.838;2023-04-25T11:42:42;6.68;;;1.70;;
75820;SDS011;64454;51.984;9.838;2023-04-25T11:45:13;3.47;;;1.70;;
75820;SDS011;64454;51.984;9.838;2023-04-25T11:47:41;3.80;;;1.40;;
75820;SDS011;64454;51.984;9.838;2023-04-25T11:50:09;3.53;;;1.50;;
75820;SDS011;64454;51.984;9.838;2023-04-25T11:52:39;2.77;;;1.30;;
75820;SDS011;64454;51.984;9.838;2023-04-25T11:55:08;5.13;;;1.70;;
75820;SDS011;64454;51.984;9.838;2023-04-25T11:57:41;5.18;;;1.70;;
75820;SDS011;64454;51.984;9.838;2023-04-25T12:00:11;2.92;;;1.40;;
75820;SDS011;64454;51.984;9.838;2023-04-25T12:02:42;5.60;;;1.70;;
75820;SDS011;64454;51.984;9.838;2023-04-25T12:05:09;4.95;;;1.20;;
75820;SDS011;64454;51.984;9.838;2023-04-25T12:07:37;3.35;;;1.30;;
75820;SDS011;64454;51.984;9.838;2023-04-25T12:10:06;4.22;;;1.50;;
75820;SDS011;64454;51.984;9.838;2023-04-25T12:12:37;1.90;;;1.50;;
75820;SDS011;64454;51.984;9.838;2023-04-25T12:15:08;4.03;;;1.77;;
75820;SDS011;64454;51.984;9.838;2023-04-25T12:17:37;5.55;;;1.60;;
75820;SDS011;64454;51.984;9.838;2023-04-25T12:20:05;5.85;;;1.70;;
75820;SDS011;64454;51.984;9.838;2023-04-25T12:22:35;5.80;;;1.70;;
75820;SDS011;64454;51.984;9.838;2023-04-25T12:25:02;3.90;;;1.48;;
75820;SDS011;64454;51.984;9.838;2023-04-25T12:27:30;3.93;;;1.70;;
75820;SDS011;64454;51.984;9.838;2023-04-25T12:30:00;4.68;;;1.80;;
75820;SDS011;64454;51.984;9.838;2023-04-25T12:32:26;5.27;;;1.40;;
75820;SDS011;64454;51.984;9.838;2023-04-25T12:34:53;2.60;;;1.38;;
75820;SDS011;64454;51.984;9.838;2023-04-25T12:37:20;5.13;;;1.90;;
75820;SDS011;64454;51.984;9.838;2023-04-25T12:39:47;4.07;;;1.40;;
75820;SDS011;64454;51.984;9.838;2023-04-25T12:42:14;4.22;;;1.30;;
75820;SDS011;64454;51.984;9.838;2023-04-25T12:44:41;4.18;;;1.60;;
75820;SDS011;64454;51.984;9.838;2023-04-25T12:47:09;3.05;;;1.50;;
75820;SDS011;64454;51.984;9.838;2023-04-25T12:49:36;4.20;;;1.65;;
75820;SDS011;64454;51.984;9.838;2023-04-25T12:52:03;5.60;;;1.45;;
75820;SDS011;64454;51.984;9.838;2023-04-25T12:54:30;3.38;;;1.40;;
75820;SDS011;64454;51.984;9.838;2023-04-25T12:56:56;2.35;;;1.30;;
75820;SDS011;64454;51.984;9.838;2023-04-25T12:59:24;5.05;;;1.40;;
75820;SDS011;64454;51.984;9.838;2023-04-25T13:01:51;2.75;;;1.08;;
75820;SDS011;64454;51.984;9.838;2023-04-25T13:04:19;5.45;;;1.40;;
75820;SDS011;64454;51.984;9.838;2023-04-25T13:06:46;2.80;;;1.33;;
75820;SDS011;64454;51.984;9.838;2023-04-25T13:09:14;3.08;;;1.10;;
75820;SDS011;64454;51.984;9.838;2023-04-25T13:11:43;2.00;;;1.00;;
75820;SDS011;64454;51.984;9.838;2023-04-25T13:14:10;3.63;;;1.17;;
75820;SDS011;64454;51.984;9.838;2023-04-25T13:16:37;2.97;;;1.30;;
75820;SDS011;64454;51.984;9.838;2023-04-25T13:19:04;2.27;;;1.20;;
75820;SDS011;64454;51.984;9.838;2023-04-25T13:21:34;4.05;;;1.17;;
75820;SDS011;64454;51.984;9.838;2023-04-25T13:24:01;1.60;;;0.90;;
75820;SDS011;64454;51.984;9.838;2023-04-25T13:26:28;3.42;;;1.35;;
75820;SDS011;64454;51.984;9.838;2023-04-25T13:28:55;3.45;;;1.08;;
75820;SDS011;64454;51.984;9.838;2023-04-25T13:31:22;2.40;;;1.00;;
75820;SDS011;64454;51.984;9.838;2023-04-25T13:33:49;3.58;;;1.10;;
75820;SDS011;64454;51.984;9.838;2023-04-25T13:36:16;3.70;;;1.20;;
75820;SDS011;64454;51.984;9.838;2023-04-25T13:38:44;3.03;;;1.10;;
75820;SDS011;64454;51.984;9.838;2023-04-25T13:41:12;3.80;;;1.20;;
75820;SDS011;64454;51.984;9.838;2023-04-25T13:43:43;2.00;;;0.90;;
75820;SDS011;64454;51.984;9.838;2023-04-25T13:46:12;3.42;;;1.30;;
75820;SDS011;64454;51.984;9.838;2023-04-25T13:48:40;2.60;;;1.20;;
75820;SDS011;64454;51.984;9.838;2023-04-25T13:51:11;3.65;;;1.30;;
75820;SDS011;64454;51.984;9.838;2023-04-25T13:53:40;2.80;;;1.00;;
75820;SDS011;64454;51.984;9.838;2023-04-25T13:56:08;3.70;;;1.30;;
75820;SDS011;64454;51.984;9.838;2023-04-25T13:58:36;3.65;;;1.23;;
75820;SDS011;64454;51.984;9.838;2023-04-25T14:01:04;2.10;;;1.20;;
75820;SDS011;64454;51.984;9.838;2023-04-25T14:03:30;2.45;;;1.10;;
75820;SDS011;64454;51.984;9.838;2023-04-25T14:05:57;6.25;;;1.10;;
75820;SDS011;64454;51.984;9.838;2023-04-25T14:08:24;3.40;;;1.30;;
75820;SDS011;64454;51.984;9.838;2023-04-25T14:10:51;4.82;;;1.48;;
75820;SDS011;64454;51.984;9.838;2023-04-25T14:13:19;3.10;;;1.20;;
75820;SDS011;64454;51.984;9.838;2023-04-25T14:15:46;2.60;;;1.00;;
75820;SDS011;64454;51.984;9.838;2023-04-25T14:18:13;5.40;;;1.30;;
75820;SDS011;64454;51.984;9.838;2023-04-25T14:20:40;2.97;;;1.27;;
75820;SDS011;64454;51.984;9.838;2023-04-25T14:23:07;2.83;;;1.30;;
75820;SDS011;64454;51.984;9.838;2023-04-25T14:25:34;3.25;;;1.30;;
75820;SDS011;64454;51.984;9.838;2023-04-25T14:28:01;3.40;;;1.10;;
75820;SDS011;64454;51.984;9.838;2023-04-25T14:30:30;2.75;;;1.40;;
75820;SDS011;64454;51.984;9.838;2023-04-25T14:32:56;3.53;;;1.10;;
75820;SDS011;64454;51.984;9.838;2023-04-25T14:35:23;2.90;;;1.20;;
75820;SDS011;64454;51.984;9.838;2023-04-25T14:37:50;3.10;;;1.10;;
75820;SDS011;64454;51.984;9.838;2023-04-25T14:40:17;3.03;;;1.23;;
75820;SDS011;64454;51.984;9.838;2023-04-25T14:42:47;1.80;;;1.00;;
75820;SDS011;64454;51.984;9.838;2023-04-25T14:45:13;3.27;;;1.13;;
75820;SDS011;64454;51.984;9.838;2023-04-25T14:47:42;3.38;;;1.10;;
75820;SDS011;64454;51.984;9.838;2023-04-25T14:50:09;3.85;;;1.48;;
75820;SDS011;64454;51.984;9.838;2023-04-25T14:52:36;5.43;;;1.40;;